Airfield :
LOGIN :

Register | Disclaimer

   EN    FR    IT 

 










Legend :    VFR   Marginal VFR   IFR   Intensive IFR   Very Intensive IFR
Visi :
Ceiling :
>= 8 km
>= 3000ft
5 to 8 km
1000 to 3000 ft
1500m to 5 km
500 to 1000 ft
800 to 1500m
200 to 500 ft
< 800m
< 200 ft
Symbols :   Thunderstorms  Fog  Heavy snow  Heavy precipitations  Wind > 20 kt
SIGMETs :     Misc.  Thunderstorms  Icing  Turbulence  Mountain Waves  Volcanic Ashes






- Airport Elevation : 117 ft
- IATA code : NWI


EGSH - Norwich

CURRENT METAR :
  • 291350Z 25016KT 9999 FEW028 07/03 Q1007

EXPIRED METARs :
  • 291320Z 26017KT 230V290 9999 FEW026 08/02 Q1007 NOSIG
  • 291250Z 26017KT 220V290 9999 FEW026 08/03 Q1007 NOSIG
  • 291220Z 25015KT 220V280 9999 FEW024 08/03 Q1007
  • 291150Z 26013KT 9999 FEW024 07/02 Q1007
  • 291120Z 26015KT 9999 FEW024 06/02 Q1006

TAF TAF EGSH
Valid from the 29 at 12:00 until the 29 at 21:00 UTC


291103Z 2912/2921 25014KT 9999 FEW020
TEMPO 2918/2921 24017G28KT
ATIS : +44 1603 420 640



MET'MAP, your aeronautical weather chart ! - Copyright ORBIFLY December 2007 - Disclaimer

ORBIFLY MET'MAP TEAM :

Programming & Development : Alexandra Zaïnal
Concept & original design : Baudouin d'Aumeries
Assistance for programming : Marc-Olivier Méhu
Technical & hardware support : Manuel Goepfert

Contact : metmap@orbifly.com




SOURCES & CREDITS :

   NOAA